Terminal Aerodrome Forecast
Issued by NWS

Home | Current Version | Previous Version | Text Only | Print | Product List | Glossary On
Versions: 1 2 3 4 5 6 7 8 9 10 11 12 13 14 15 16 17 18 19 20 21 22 23 24 25 26 27 28 29 30
872
FTUS45 KREV 200522
TAFTRK
TAF
KTRK 200522Z 2006/2106 17008G16KT P6SM VCSH FEW015 BKN035
     FM201000 20010G20KT 2SM -SN BR SCT010 BKN018
     FM201300 19010KT 3/4SM -SN BR VV008=

USA.gov is the U.S. government's official web portal to all federal, state and local government web resources and services.